Aviation Digital Data Service (ADDS)

Output produced by METARs form (1927 UTC 18 June 2019)
found at http://www.aviationweather.gov/metar/data/
 
K20U 181915Z AUTO 12009KT 10SM BKN043 BKN050 22/11 A2996 RMK AO2
KBIS 181852Z 13006KT 10SM FEW075 22/11 A3000 RMK AO2 SLP156 T02170106
KBIS 181722Z 1818/1918 10007KT P6SM SCT050 SCT250 
     FM190000 13005KT P6SM FEW060 SCT180 
     FM190900 10005KT P6SM VCSH SCT030 OVC050 
     FM191200 11006KT 6SM SHRA BR BKN025 OVC040 
     FM191400 13012KT 6SM SHRA BR VCTS BKN015 OVC025CB
       
K9D7 181915Z AUTO 06007KT 10SM SCT060 SCT070 OVC085 21/10 A3003 RMK AO2
K46D 181915Z AUTO 15005KT 10SM BKN050 21/08 A3002 RMK AO2
K2C8 181915Z AUTO VRB03KT 10SM CLR 22/08 A2998 RMK AO2
KS32 181915Z AUTO 06010G19KT 9SM FEW047 21/09 A3000 RMK AO2
KD50 181915Z AUTO 13009KT 10SM SCT060 SCT075 SCT080 22/07 A2997 RMK AO2
KDVL 181856Z AUTO 16009KT 10SM CLR 20/09 A3002 RMK AO2 SLP745 T02000094
KDVL 181729Z 1818/1918 VRB04KT P6SM SCT180 
     FM182300 09005KT P6SM SCT150 
     FM190900 14005KT P6SM BKN200
       
KDIK 181856Z AUTO 10009G21KT 10SM BKN037 19/11 A2997 RMK AO2 SLP143 T01940111 $
KDIK 181722Z 1818/1918 11012KT P6SM BKN040 
     FM182100 12009KT P6SM VCTS SCT060CB BKN150 
     FM190300 13008KT P6SM SCT060 OVC120 
     FM190800 14006KT P6SM VCSH SCT027 OVC070 
     FM191200 18006KT 3SM SHRA BR SCT008 OVC012
       
KFAR 181853Z 02007KT 10SM BKN043 22/11 A2997 RMK AO2 SLP151 T02170106
KFAR 181729Z 1818/1918 02007KT P6SM OVC035 
     FM182100 VRB04KT P6SM OVC100 
     FM191200 00000KT P6SM BKN060 
     FM191300 VRB03KT P6SM SCT200
       
KD57 181915Z AUTO 13008G13KT 10SM 19/11 A2998 RMK AO2 PWINO
KGAF 181915Z AUTO VRB03KT 10SM CLR 22/09 A3001 RMK AO2 PWINO
KGFK 181853Z VRB06KT 10SM SCT045 22/10 A2998 RMK AO2 SLP153 T02220100
KGFK 181729Z 1818/1918 05007KT P6SM SCT090 
     FM182200 04005KT P6SM BKN180 
     FM191100 00000KT P6SM SCT050 
     FM191200 VRB03KT P6SM BKN150
       
KGWR 181915Z AUTO 03005G11KT 10SM 21/11 A2998 RMK A01
K5H4 181915Z AUTO 10008KT 10SM SCT080 21/09 A3001 RMK AO2
KHZE 181915Z AUTO 12005KT 10SM OVC050 21/11 A2999 RMK AO2
KHEI 181853Z AUTO 11006KT 10SM FEW034 SCT041 22/14 A2996 RMK AO2 SLP136 T02220139
KJMS 181856Z AUTO 05009KT 10SM BKN047 22/11 A2999 RMK AO2 SLP156 T02170106
KJMS 181722Z 1818/1918 08005KT P6SM BKN040 
     FM182300 09005KT P6SM SCT050 SCT250 
     FM191100 12004KT P6SM SCT060 BKN150 
     FM191500 13010KT P6SM VCSH BKN040
       
KD55 181415Z AUTO 00000KT 10SM CLR A3006 RMK AO2
K7L2 181915Z AUTO 20006KT 10SM BKN085 A3001 RMK AO2
KY19 181915Z AUTO VRB06KT 10SM FEW075 20/11 A3000 RMK AO2
KMOT 181854Z 10SM BKN055 23/07 A2999 RMK AO2 SLP155 T02280067
KMOT 181722Z 1818/1918 09005KT P6SM SCT080 SCT250 
     FM190100 11006KT P6SM SCT080 BKN150 
     FM191000 13005KT P6SM VCSH SCT045 BKN070 
     FM191300 11007KT P6SM SCT015 BKN025 
     FM191500 14010KT 6SM -SHRA BR BKN015 OVC025
       
K2D5 181915Z AUTO VRB04G10KT 10SM CLR 21/11 A2999 RMK AO2 PWINO
K06D 181915Z AUTO 00000KT 10SM BKN095 20/07 A3002 RMK AO2
KRUG 181915Z AUTO VRB03KT 10SM FEW047 20/11 A3000 RMK AO2
K08D 181915Z AUTO 12007G15KT 9SM FEW049 SCT060 19/09 A3000 RMK AO2
KD60 181915Z AUTO 11010KT 10SM FEW047 SCT055 20/09 A2999 RMK AO2
KBAC 181915Z AUTO 09009G14KT 10SM CLR 21/11 A3000 RMK AO2
KBWP 181915Z AUTO 02009KT 10SM SCT041 21/08 A2997 RMK AO1
K96D 181915Z AUTO VRB06G13KT 10SM FEW070 FEW100 23/10 A2999 RMK AO2
KS25 181915Z AUTO 11006G14KT 10SM FEW050 FEW070 20/11 A2995 RMK AO2
KISN 181852Z AUTO 17010KT 10SM CLR 23/08 A2996 RMK AO2 SLP144 T02280083
KISN 181722Z 1818/1918 14007KT P6SM FEW050 SCT150 
     FM190700 13006KT P6SM VCSH SCT060 BKN150 
     FM191200 13005KT 6SM -SHRA BR BKN015 OVC025